sensor_id;sensor_type;location;lat;lon;timestamp;P1;durP1;ratioP1;P2;durP2;ratioP2
323;SDS011;149;51.094;17.002;2023-02-15T00:01:53;32.50;;;17.23;;
323;SDS011;149;51.094;17.002;2023-02-15T00:04:21;37.72;;;21.67;;
323;SDS011;149;51.094;17.002;2023-02-15T00:06:50;39.83;;;19.45;;
323;SDS011;149;51.094;17.002;2023-02-15T00:09:17;31.98;;;17.13;;
323;SDS011;149;51.094;17.002;2023-02-15T00:11:44;36.20;;;18.30;;
323;SDS011;149;51.094;17.002;2023-02-15T00:14:17;35.90;;;19.02;;
323;SDS011;149;51.094;17.002;2023-02-15T00:16:49;30.02;;;17.40;;
323;SDS011;149;51.094;17.002;2023-02-15T00:19:19;30.80;;;16.42;;
323;SDS011;149;51.094;17.002;2023-02-15T00:21:47;32.38;;;18.10;;
323;SDS011;149;51.094;17.002;2023-02-15T00:24:16;43.88;;;23.58;;
323;SDS011;149;51.094;17.002;2023-02-15T00:26:44;36.25;;;17.65;;
323;SDS011;149;51.094;17.002;2023-02-15T00:29:13;34.47;;;19.90;;
323;SDS011;149;51.094;17.002;2023-02-15T00:31:42;39.72;;;20.17;;
323;SDS011;149;51.094;17.002;2023-02-15T00:36:46;29.52;;;17.25;;
323;SDS011;149;51.094;17.002;2023-02-15T00:39:14;38.97;;;19.00;;
323;SDS011;149;51.094;17.002;2023-02-15T00:41:42;30.23;;;16.50;;
323;SDS011;149;51.094;17.002;2023-02-15T00:44:09;42.08;;;20.17;;
323;SDS011;149;51.094;17.002;2023-02-15T00:46:36;55.03;;;27.83;;
323;SDS011;149;51.094;17.002;2023-02-15T00:49:04;32.33;;;19.17;;
323;SDS011;149;51.094;17.002;2023-02-15T00:51:31;31.42;;;18.48;;
323;SDS011;149;51.094;17.002;2023-02-15T00:53:59;32.20;;;15.60;;
323;SDS011;149;51.094;17.002;2023-02-15T00:56:26;33.35;;;19.10;;
323;SDS011;149;51.094;17.002;2023-02-15T00:58:54;34.85;;;18.35;;
323;SDS011;149;51.094;17.002;2023-02-15T01:01:22;37.58;;;19.20;;
323;SDS011;149;51.094;17.002;2023-02-15T01:03:49;34.95;;;18.58;;
323;SDS011;149;51.094;17.002;2023-02-15T01:06:17;33.40;;;18.40;;
323;SDS011;149;51.094;17.002;2023-02-15T01:08:44;40.05;;;21.25;;
323;SDS011;149;51.094;17.002;2023-02-15T01:11:16;35.22;;;19.48;;
323;SDS011;149;51.094;17.002;2023-02-15T01:13:49;33.22;;;17.70;;
323;SDS011;149;51.094;17.002;2023-02-15T01:16:17;40.75;;;19.73;;
323;SDS011;149;51.094;17.002;2023-02-15T01:18:45;37.42;;;20.02;;
323;SDS011;149;51.094;17.002;2023-02-15T01:21:13;43.35;;;24.42;;
323;SDS011;149;51.094;17.002;2023-02-15T01:23:41;42.38;;;22.65;;
323;SDS011;149;51.094;17.002;2023-02-15T01:26:09;39.70;;;23.88;;
323;SDS011;149;51.094;17.002;2023-02-15T01:28:36;42.55;;;21.35;;
323;SDS011;149;51.094;17.002;2023-02-15T01:31:12;44.85;;;24.10;;
323;SDS011;149;51.094;17.002;2023-02-15T01:33:44;43.53;;;21.48;;
323;SDS011;149;51.094;17.002;2023-02-15T01:36:11;41.25;;;21.52;;
323;SDS011;149;51.094;17.002;2023-02-15T01:38:39;47.70;;;23.33;;
323;SDS011;149;51.094;17.002;2023-02-15T01:41:06;42.13;;;23.60;;
323;SDS011;149;51.094;17.002;2023-02-15T01:43:54;41.35;;;22.45;;
323;SDS011;149;51.094;17.002;2023-02-15T01:46:24;55.08;;;26.83;;
323;SDS011;149;51.094;17.002;2023-02-15T01:48:56;41.60;;;24.48;;
323;SDS011;149;51.094;17.002;2023-02-15T01:51:34;41.72;;;24.23;;
323;SDS011;149;51.094;17.002;2023-02-15T01:54:09;55.50;;;23.27;;
323;SDS011;149;51.094;17.002;2023-02-15T01:56:44;50.35;;;25.15;;
323;SDS011;149;51.094;17.002;2023-02-15T01:59:13;53.90;;;27.15;;
323;SDS011;149;51.094;17.002;2023-02-15T02:01:48;44.13;;;24.13;;
323;SDS011;149;51.094;17.002;2023-02-15T02:04:31;47.08;;;26.88;;
323;SDS011;149;51.094;17.002;2023-02-15T02:07:23;48.00;;;24.23;;
323;SDS011;149;51.094;17.002;2023-02-15T02:09:54;51.78;;;27.98;;
323;SDS011;149;51.094;17.002;2023-02-15T02:12:22;47.92;;;25.67;;
323;SDS011;149;51.094;17.002;2023-02-15T02:14:49;42.20;;;24.83;;
323;SDS011;149;51.094;17.002;2023-02-15T02:20:54;42.40;;;24.95;;
323;SDS011;149;51.094;17.002;2023-02-15T02:44:54;43.67;;;26.25;;
323;SDS011;149;51.094;17.002;2023-02-15T02:50:21;45.63;;;24.95;;
323;SDS011;149;51.094;17.002;2023-02-15T02:52:50;39.05;;;22.60;;
323;SDS011;149;51.094;17.002;2023-02-15T03:00:52;39.00;;;21.20;;
323;SDS011;149;51.094;17.002;2023-02-15T03:03:34;33.80;;;22.27;;
323;SDS011;149;51.094;17.002;2023-02-15T03:06:25;35.53;;;20.40;;
323;SDS011;149;51.094;17.002;2023-02-15T03:08:55;34.45;;;21.05;;
323;SDS011;149;51.094;17.002;2023-02-15T03:11:44;35.38;;;21.65;;
323;SDS011;149;51.094;17.002;2023-02-15T03:14:12;40.70;;;22.17;;
323;SDS011;149;51.094;17.002;2023-02-15T03:16:42;34.45;;;19.52;;
323;SDS011;149;51.094;17.002;2023-02-15T03:19:13;36.10;;;19.90;;
323;SDS011;149;51.094;17.002;2023-02-15T03:21:51;37.20;;;21.20;;
323;SDS011;149;51.094;17.002;2023-02-15T03:24:36;33.05;;;20.15;;
323;SDS011;149;51.094;17.002;2023-02-15T03:27:14;31.50;;;21.35;;
323;SDS011;149;51.094;17.002;2023-02-15T03:29:47;35.88;;;23.27;;
323;SDS011;149;51.094;17.002;2023-02-15T03:32:18;40.05;;;22.55;;
323;SDS011;149;51.094;17.002;2023-02-15T03:34:46;37.95;;;23.80;;
323;SDS011;149;51.094;17.002;2023-02-15T03:39:58;39.40;;;21.23;;
323;SDS011;149;51.094;17.002;2023-02-15T03:42:53;44.95;;;23.65;;
323;SDS011;149;51.094;17.002;2023-02-15T03:45:28;39.53;;;24.50;;
323;SDS011;149;51.094;17.002;2023-02-15T03:47:57;38.67;;;22.58;;
323;SDS011;149;51.094;17.002;2023-02-15T03:50:29;37.72;;;21.90;;
323;SDS011;149;51.094;17.002;2023-02-15T03:53:18;39.72;;;21.48;;
323;SDS011;149;51.094;17.002;2023-02-15T03:55:47;47.97;;;26.45;;
323;SDS011;149;51.094;17.002;2023-02-15T03:58:16;41.58;;;26.10;;
323;SDS011;149;51.094;17.002;2023-02-15T04:01:34;49.17;;;27.45;;
323;SDS011;149;51.094;17.002;2023-02-15T04:04:31;56.58;;;26.48;;
323;SDS011;149;51.094;17.002;2023-02-15T04:06:59;46.63;;;25.83;;
323;SDS011;149;51.094;17.002;2023-02-15T04:09:26;49.53;;;26.63;;
323;SDS011;149;51.094;17.002;2023-02-15T04:12:12;47.00;;;29.27;;
323;SDS011;149;51.094;17.002;2023-02-15T04:14:39;52.22;;;27.80;;
323;SDS011;149;51.094;17.002;2023-02-15T04:17:26;48.15;;;27.23;;
323;SDS011;149;51.094;17.002;2023-02-15T04:19:53;49.60;;;28.80;;
323;SDS011;149;51.094;17.002;2023-02-15T04:22:40;39.75;;;27.33;;
323;SDS011;149;51.094;17.002;2023-02-15T04:25:26;53.70;;;30.13;;
323;SDS011;149;51.094;17.002;2023-02-15T04:27:54;44.13;;;28.88;;
323;SDS011;149;51.094;17.002;2023-02-15T04:30:23;44.05;;;27.05;;
323;SDS011;149;51.094;17.002;2023-02-15T04:32:53;52.00;;;27.17;;
323;SDS011;149;51.094;17.002;2023-02-15T04:35:20;50.72;;;29.70;;
323;SDS011;149;51.094;17.002;2023-02-15T04:37:48;46.00;;;27.15;;
323;SDS011;149;51.094;17.002;2023-02-15T04:40:16;47.45;;;30.73;;
323;SDS011;149;51.094;17.002;2023-02-15T04:42:46;58.15;;;31.63;;
323;SDS011;149;51.094;17.002;2023-02-15T04:45:15;51.75;;;29.80;;
323;SDS011;149;51.094;17.002;2023-02-15T04:47:43;47.03;;;29.85;;
323;SDS011;149;51.094;17.002;2023-02-15T04:50:10;45.60;;;28.23;;
323;SDS011;149;51.094;17.002;2023-02-15T04:52:37;43.97;;;27.88;;
323;SDS011;149;51.094;17.002;2023-02-15T04:55:05;56.10;;;29.10;;
323;SDS011;149;51.094;17.002;2023-02-15T04:57:32;53.28;;;28.80;;
323;SDS011;149;51.094;17.002;2023-02-15T05:00:00;48.63;;;28.88;;
323;SDS011;149;51.094;17.002;2023-02-15T05:02:27;58.40;;;32.05;;
323;SDS011;149;51.094;17.002;2023-02-15T05:04:55;43.85;;;27.08;;
323;SDS011;149;51.094;17.002;2023-02-15T05:07:22;50.60;;;29.38;;
323;SDS011;149;51.094;17.002;2023-02-15T05:09:50;46.33;;;29.42;;
323;SDS011;149;51.094;17.002;2023-02-15T05:12:17;47.42;;;27.67;;
323;SDS011;149;51.094;17.002;2023-02-15T05:14:44;66.95;;;33.83;;
323;SDS011;149;51.094;17.002;2023-02-15T05:17:12;58.17;;;31.40;;
323;SDS011;149;51.094;17.002;2023-02-15T05:19:39;43.58;;;28.52;;
323;SDS011;149;51.094;17.002;2023-02-15T05:22:06;53.78;;;31.13;;
323;SDS011;149;51.094;17.002;2023-02-15T05:24:33;54.97;;;33.03;;
323;SDS011;149;51.094;17.002;2023-02-15T05:27:20;63.83;;;32.75;;
323;SDS011;149;51.094;17.002;2023-02-15T05:30:08;63.97;;;35.53;;
323;SDS011;149;51.094;17.002;2023-02-15T05:32:38;60.28;;;31.90;;
323;SDS011;149;51.094;17.002;2023-02-15T05:35:06;54.83;;;31.45;;
323;SDS011;149;51.094;17.002;2023-02-15T05:37:33;58.08;;;32.75;;
323;SDS011;149;51.094;17.002;2023-02-15T05:40:01;59.22;;;30.45;;
323;SDS011;149;51.094;17.002;2023-02-15T05:42:28;53.88;;;30.58;;
323;SDS011;149;51.094;17.002;2023-02-15T05:44:56;54.20;;;30.40;;
323;SDS011;149;51.094;17.002;2023-02-15T05:47:22;54.90;;;30.88;;
323;SDS011;149;51.094;17.002;2023-02-15T05:49:50;55.20;;;27.83;;
323;SDS011;149;51.094;17.002;2023-02-15T05:52:17;52.58;;;30.42;;
323;SDS011;149;51.094;17.002;2023-02-15T05:54:44;49.88;;;27.58;;
323;SDS011;149;51.094;17.002;2023-02-15T05:57:11;50.85;;;29.50;;
323;SDS011;149;51.094;17.002;2023-02-15T05:59:39;57.63;;;29.83;;
323;SDS011;149;51.094;17.002;2023-02-15T06:02:06;46.83;;;28.23;;
323;SDS011;149;51.094;17.002;2023-02-15T06:04:34;66.50;;;31.20;;
323;SDS011;149;51.094;17.002;2023-02-15T06:07:01;59.92;;;32.60;;
323;SDS011;149;51.094;17.002;2023-02-15T06:09:29;58.95;;;33.30;;
323;SDS011;149;51.094;17.002;2023-02-15T06:11:56;60.72;;;34.05;;
323;SDS011;149;51.094;17.002;2023-02-15T06:14:24;54.42;;;29.30;;
323;SDS011;149;51.094;17.002;2023-02-15T06:16:52;55.80;;;32.33;;
323;SDS011;149;51.094;17.002;2023-02-15T06:19:19;53.65;;;31.05;;
323;SDS011;149;51.094;17.002;2023-02-15T06:21:48;54.60;;;28.92;;
323;SDS011;149;51.094;17.002;2023-02-15T06:24:15;56.33;;;29.17;;
323;SDS011;149;51.094;17.002;2023-02-15T06:26:42;56.03;;;30.50;;
323;SDS011;149;51.094;17.002;2023-02-15T06:29:09;61.88;;;32.47;;
323;SDS011;149;51.094;17.002;2023-02-15T06:31:37;52.40;;;29.83;;
323;SDS011;149;51.094;17.002;2023-02-15T06:34:04;51.80;;;28.85;;
323;SDS011;149;51.094;17.002;2023-02-15T06:36:32;51.95;;;31.15;;
323;SDS011;149;51.094;17.002;2023-02-15T06:39:00;56.55;;;31.60;;
323;SDS011;149;51.094;17.002;2023-02-15T06:41:28;48.53;;;28.70;;
323;SDS011;149;51.094;17.002;2023-02-15T06:43:55;51.35;;;29.08;;
323;SDS011;149;51.094;17.002;2023-02-15T06:46:22;57.45;;;33.08;;
323;SDS011;149;51.094;17.002;2023-02-15T06:48:49;46.40;;;29.75;;
323;SDS011;149;51.094;17.002;2023-02-15T06:51:16;57.33;;;32.00;;
323;SDS011;149;51.094;17.002;2023-02-15T06:53:43;53.50;;;31.23;;
323;SDS011;149;51.094;17.002;2023-02-15T06:56:10;48.38;;;29.02;;
323;SDS011;149;51.094;17.002;2023-02-15T06:58:38;54.75;;;28.50;;
323;SDS011;149;51.094;17.002;2023-02-15T07:01:06;52.72;;;27.45;;
323;SDS011;149;51.094;17.002;2023-02-15T07:03:34;51.55;;;28.73;;
323;SDS011;149;51.094;17.002;2023-02-15T07:06:02;50.33;;;26.92;;
323;SDS011;149;51.094;17.002;2023-02-15T07:08:32;45.78;;;27.00;;
323;SDS011;149;51.094;17.002;2023-02-15T07:11:00;52.47;;;26.75;;
323;SDS011;149;51.094;17.002;2023-02-15T07:13:47;49.35;;;26.58;;
323;SDS011;149;51.094;17.002;2023-02-15T07:16:14;49.25;;;29.52;;
323;SDS011;149;51.094;17.002;2023-02-15T07:18:42;45.05;;;28.35;;
323;SDS011;149;51.094;17.002;2023-02-15T07:21:09;44.50;;;25.58;;
323;SDS011;149;51.094;17.002;2023-02-15T07:23:37;44.42;;;23.40;;
323;SDS011;149;51.094;17.002;2023-02-15T07:26:05;49.85;;;24.45;;
323;SDS011;149;51.094;17.002;2023-02-15T07:28:33;42.88;;;24.65;;
323;SDS011;149;51.094;17.002;2023-02-15T07:31:02;40.30;;;23.73;;
323;SDS011;149;51.094;17.002;2023-02-15T07:33:30;39.30;;;23.88;;
323;SDS011;149;51.094;17.002;2023-02-15T07:35:59;40.15;;;25.70;;
323;SDS011;149;51.094;17.002;2023-02-15T07:38:33;33.78;;;20.05;;
323;SDS011;149;51.094;17.002;2023-02-15T07:41:02;32.47;;;21.67;;
323;SDS011;149;51.094;17.002;2023-02-15T07:43:32;29.25;;;18.95;;
323;SDS011;149;51.094;17.002;2023-02-15T07:46:02;32.95;;;18.95;;
323;SDS011;149;51.094;17.002;2023-02-15T07:48:32;32.83;;;19.40;;
323;SDS011;149;51.094;17.002;2023-02-15T07:51:00;36.30;;;19.25;;
323;SDS011;149;51.094;17.002;2023-02-15T07:53:28;31.55;;;20.52;;
323;SDS011;149;51.094;17.002;2023-02-15T07:55:59;29.40;;;17.92;;
323;SDS011;149;51.094;17.002;2023-02-15T07:58:27;29.58;;;19.02;;
323;SDS011;149;51.094;17.002;2023-02-15T08:01:19;23.73;;;17.40;;
323;SDS011;149;51.094;17.002;2023-02-15T08:04:00;25.15;;;17.83;;
323;SDS011;149;51.094;17.002;2023-02-15T08:06:29;33.15;;;18.67;;
323;SDS011;149;51.094;17.002;2023-02-15T08:08:58;33.00;;;18.08;;
323;SDS011;149;51.094;17.002;2023-02-15T08:11:26;27.52;;;15.73;;
323;SDS011;149;51.094;17.002;2023-02-15T08:16:35;19.58;;;14.40;;
323;SDS011;149;51.094;17.002;2023-02-15T08:19:10;31.05;;;16.55;;
323;SDS011;149;51.094;17.002;2023-02-15T08:21:49;21.33;;;15.70;;
323;SDS011;149;51.094;17.002;2023-02-15T08:24:27;26.38;;;16.73;;
323;SDS011;149;51.094;17.002;2023-02-15T08:26:56;27.52;;;16.25;;
323;SDS011;149;51.094;17.002;2023-02-15T08:29:26;26.40;;;16.33;;
323;SDS011;149;51.094;17.002;2023-02-15T08:31:55;20.83;;;13.73;;
323;SDS011;149;51.094;17.002;2023-02-15T08:34:25;19.90;;;14.60;;
323;SDS011;149;51.094;17.002;2023-02-15T08:36:52;25.45;;;15.60;;
323;SDS011;149;51.094;17.002;2023-02-15T08:39:19;26.50;;;16.10;;
323;SDS011;149;51.094;17.002;2023-02-15T08:41:47;20.98;;;15.48;;
323;SDS011;149;51.094;17.002;2023-02-15T08:44:15;25.83;;;17.35;;
323;SDS011;149;51.094;17.002;2023-02-15T08:46:44;26.08;;;16.73;;
323;SDS011;149;51.094;17.002;2023-02-15T08:49:13;21.58;;;14.73;;
323;SDS011;149;51.094;17.002;2023-02-15T08:51:49;21.70;;;15.90;;
323;SDS011;149;51.094;17.002;2023-02-15T08:54:17;25.90;;;16.77;;
323;SDS011;149;51.094;17.002;2023-02-15T08:56:46;21.20;;;16.38;;
323;SDS011;149;51.094;17.002;2023-02-15T08:59:17;24.08;;;15.32;;
323;SDS011;149;51.094;17.002;2023-02-15T09:01:46;21.95;;;14.70;;
323;SDS011;149;51.094;17.002;2023-02-15T09:04:14;20.30;;;13.50;;
323;SDS011;149;51.094;17.002;2023-02-15T09:06:43;24.27;;;14.88;;
323;SDS011;149;51.094;17.002;2023-02-15T09:09:14;26.13;;;17.13;;
323;SDS011;149;51.094;17.002;2023-02-15T09:11:42;21.73;;;15.18;;
323;SDS011;149;51.094;17.002;2023-02-15T09:14:12;33.97;;;19.33;;
323;SDS011;149;51.094;17.002;2023-02-15T09:16:42;25.38;;;18.52;;
323;SDS011;149;51.094;17.002;2023-02-15T09:19:18;25.50;;;16.67;;
323;SDS011;149;51.094;17.002;2023-02-15T09:21:46;24.33;;;16.70;;
323;SDS011;149;51.094;17.002;2023-02-15T09:24:15;28.33;;;16.83;;
323;SDS011;149;51.094;17.002;2023-02-15T09:26:43;28.23;;;16.48;;
323;SDS011;149;51.094;17.002;2023-02-15T09:29:12;28.52;;;16.42;;
323;SDS011;149;51.094;17.002;2023-02-15T09:31:41;25.63;;;16.92;;
323;SDS011;149;51.094;17.002;2023-02-15T09:34:11;24.40;;;16.25;;
323;SDS011;149;51.094;17.002;2023-02-15T09:36:39;21.95;;;14.82;;
323;SDS011;149;51.094;17.002;2023-02-15T09:39:08;35.55;;;20.17;;
323;SDS011;149;51.094;17.002;2023-02-15T09:55:53;42.53;;;19.98;;
323;SDS011;149;51.094;17.002;2023-02-15T10:07:23;41.92;;;19.17;;
323;SDS011;149;51.094;17.002;2023-02-15T10:10:34;24.38;;;14.68;;
323;SDS011;149;51.094;17.002;2023-02-15T10:13:05;31.52;;;18.38;;
323;SDS011;149;51.094;17.002;2023-02-15T10:24:19;32.78;;;17.35;;
323;SDS011;149;51.094;17.002;2023-02-15T10:26:51;27.52;;;16.20;;
323;SDS011;149;51.094;17.002;2023-02-15T10:37:43;30.48;;;18.20;;
323;SDS011;149;51.094;17.002;2023-02-15T10:43:19;61.95;;;25.98;;
323;SDS011;149;51.094;17.002;2023-02-15T10:48:34;44.67;;;22.13;;
323;SDS011;149;51.094;17.002;2023-02-15T10:51:06;30.70;;;18.05;;
323;SDS011;149;51.094;17.002;2023-02-15T10:59:24;33.05;;;18.95;;
323;SDS011;149;51.094;17.002;2023-02-15T11:02:07;26.75;;;15.32;;
323;SDS011;149;51.094;17.002;2023-02-15T11:09:56;32.40;;;18.00;;
323;SDS011;149;51.094;17.002;2023-02-15T11:12:31;31.40;;;18.48;;
323;SDS011;149;51.094;17.002;2023-02-15T11:18:06;27.65;;;16.80;;
323;SDS011;149;51.094;17.002;2023-02-15T11:20:42;29.65;;;18.15;;
323;SDS011;149;51.094;17.002;2023-02-15T11:23:18;33.42;;;17.65;;
323;SDS011;149;51.094;17.002;2023-02-15T11:26:00;64.80;;;26.02;;
323;SDS011;149;51.094;17.002;2023-02-15T11:28:36;33.47;;;20.27;;
323;SDS011;149;51.094;17.002;2023-02-15T11:31:13;47.80;;;25.02;;
323;SDS011;149;51.094;17.002;2023-02-15T11:33:45;28.38;;;17.05;;
323;SDS011;149;51.094;17.002;2023-02-15T11:36:33;52.72;;;24.83;;
323;SDS011;149;51.094;17.002;2023-02-15T11:39:09;35.33;;;17.42;;
323;SDS011;149;51.094;17.002;2023-02-15T11:41:52;34.95;;;19.15;;
323;SDS011;149;51.094;17.002;2023-02-15T11:44:23;74.93;;;31.52;;
323;SDS011;149;51.094;17.002;2023-02-15T11:47:07;34.30;;;17.65;;
323;SDS011;149;51.094;17.002;2023-02-15T11:49:38;28.13;;;15.55;;
323;SDS011;149;51.094;17.002;2023-02-15T11:52:06;38.95;;;18.95;;
323;SDS011;149;51.094;17.002;2023-02-15T11:54:39;34.60;;;21.27;;
323;SDS011;149;51.094;17.002;2023-02-15T11:57:19;31.33;;;17.90;;
323;SDS011;149;51.094;17.002;2023-02-15T11:59:50;37.90;;;17.80;;
323;SDS011;149;51.094;17.002;2023-02-15T12:02:22;28.80;;;17.20;;
323;SDS011;149;51.094;17.002;2023-02-15T12:04:52;30.60;;;16.27;;
323;SDS011;149;51.094;17.002;2023-02-15T12:07:30;34.22;;;18.20;;
323;SDS011;149;51.094;17.002;2023-02-15T12:10:20;34.35;;;18.27;;
323;SDS011;149;51.094;17.002;2023-02-15T12:13:13;24.30;;;16.05;;
323;SDS011;149;51.094;17.002;2023-02-15T12:15:44;24.05;;;14.43;;
323;SDS011;149;51.094;17.002;2023-02-15T12:18:18;28.30;;;16.90;;
323;SDS011;149;51.094;17.002;2023-02-15T12:21:09;28.70;;;16.83;;
323;SDS011;149;51.094;17.002;2023-02-15T12:23:58;29.20;;;17.45;;
323;SDS011;149;51.094;17.002;2023-02-15T12:26:41;27.60;;;17.02;;
323;SDS011;149;51.094;17.002;2023-02-15T12:29:15;30.42;;;18.17;;
323;SDS011;149;51.094;17.002;2023-02-15T12:31:47;25.75;;;16.42;;
323;SDS011;149;51.094;17.002;2023-02-15T12:34:31;23.05;;;15.35;;
323;SDS011;149;51.094;17.002;2023-02-15T12:37:10;25.65;;;18.48;;
323;SDS011;149;51.094;17.002;2023-02-15T12:39:50;33.53;;;15.80;;
323;SDS011;149;51.094;17.002;2023-02-15T12:42:19;31.05;;;17.85;;
323;SDS011;149;51.094;17.002;2023-02-15T12:45:01;30.40;;;18.13;;
323;SDS011;149;51.094;17.002;2023-02-15T12:47:45;24.15;;;13.93;;
323;SDS011;149;51.094;17.002;2023-02-15T12:50:14;30.67;;;18.67;;
323;SDS011;149;51.094;17.002;2023-02-15T12:52:48;23.95;;;15.82;;
323;SDS011;149;51.094;17.002;2023-02-15T12:55:19;30.65;;;17.40;;
323;SDS011;149;51.094;17.002;2023-02-15T12:58:05;29.75;;;18.10;;
323;SDS011;149;51.094;17.002;2023-02-15T13:00:32;25.02;;;14.13;;
323;SDS011;149;51.094;17.002;2023-02-15T13:02:59;36.03;;;19.75;;
323;SDS011;149;51.094;17.002;2023-02-15T13:05:40;27.20;;;15.85;;
323;SDS011;149;51.094;17.002;2023-02-15T13:08:17;25.58;;;16.30;;
323;SDS011;149;51.094;17.002;2023-02-15T13:13:22;23.25;;;16.67;;
323;SDS011;149;51.094;17.002;2023-02-15T13:15:54;27.95;;;15.80;;
323;SDS011;149;51.094;17.002;2023-02-15T13:18:31;30.25;;;16.70;;
323;SDS011;149;51.094;17.002;2023-02-15T13:23:37;26.90;;;17.75;;
323;SDS011;149;51.094;17.002;2023-02-15T13:26:09;28.30;;;16.73;;
323;SDS011;149;51.094;17.002;2023-02-15T13:28:44;27.88;;;17.17;;
323;SDS011;149;51.094;17.002;2023-02-15T13:31:15;28.60;;;17.73;;
323;SDS011;149;51.094;17.002;2023-02-15T13:33:56;24.35;;;15.35;;
323;SDS011;149;51.094;17.002;2023-02-15T13:39:47;28.15;;;16.83;;
323;SDS011;149;51.094;17.002;2023-02-15T13:42:27;26.83;;;16.85;;
323;SDS011;149;51.094;17.002;2023-02-15T13:48:15;28.33;;;16.92;;
323;SDS011;149;51.094;17.002;2023-02-15T13:51:25;25.23;;;14.45;;
323;SDS011;149;51.094;17.002;2023-02-15T14:05:43;28.27;;;15.90;;
323;SDS011;149;51.094;17.002;2023-02-15T14:19:43;26.23;;;16.58;;
323;SDS011;149;51.094;17.002;2023-02-15T14:22:33;25.13;;;16.95;;
323;SDS011;149;51.094;17.002;2023-02-15T14:25:19;29.27;;;15.10;;
323;SDS011;149;51.094;17.002;2023-02-15T14:30:44;21.35;;;14.75;;
323;SDS011;149;51.094;17.002;2023-02-15T14:35:42;32.20;;;16.25;;
323;SDS011;149;51.094;17.002;2023-02-15T14:38:19;27.35;;;17.35;;
323;SDS011;149;51.094;17.002;2023-02-15T14:41:04;30.92;;;16.45;;
323;SDS011;149;51.094;17.002;2023-02-15T14:49:27;27.25;;;14.95;;
323;SDS011;149;51.094;17.002;2023-02-15T14:51:59;23.52;;;15.25;;
323;SDS011;149;51.094;17.002;2023-02-15T15:02:25;27.38;;;16.33;;
323;SDS011;149;51.094;17.002;2023-02-15T15:07:22;25.73;;;16.25;;
323;SDS011;149;51.094;17.002;2023-02-15T15:12:43;23.80;;;14.90;;
323;SDS011;149;51.094;17.002;2023-02-15T15:15:14;25.85;;;15.52;;
323;SDS011;149;51.094;17.002;2023-02-15T15:18:06;28.60;;;16.02;;
323;SDS011;149;51.094;17.002;2023-02-15T15:20:44;24.83;;;14.80;;
323;SDS011;149;51.094;17.002;2023-02-15T15:25:47;26.88;;;14.82;;
323;SDS011;149;51.094;17.002;2023-02-15T15:36:30;26.92;;;16.52;;
323;SDS011;149;51.094;17.002;2023-02-15T15:50:30;32.08;;;18.08;;
323;SDS011;149;51.094;17.002;2023-02-15T15:53:00;29.60;;;16.70;;
323;SDS011;149;51.094;17.002;2023-02-15T15:55:29;28.25;;;17.73;;
323;SDS011;149;51.094;17.002;2023-02-15T15:57:59;25.08;;;14.95;;
323;SDS011;149;51.094;17.002;2023-02-15T16:03:01;25.02;;;16.67;;
323;SDS011;149;51.094;17.002;2023-02-15T16:05:34;34.72;;;17.88;;
323;SDS011;149;51.094;17.002;2023-02-15T16:08:02;31.08;;;18.73;;
323;SDS011;149;51.094;17.002;2023-02-15T16:10:30;26.25;;;16.08;;
323;SDS011;149;51.094;17.002;2023-02-15T16:13:00;28.25;;;15.85;;
323;SDS011;149;51.094;17.002;2023-02-15T16:15:45;31.27;;;18.60;;
323;SDS011;149;51.094;17.002;2023-02-15T16:18:21;29.67;;;17.27;;
323;SDS011;149;51.094;17.002;2023-02-15T16:20:55;32.42;;;18.58;;
323;SDS011;149;51.094;17.002;2023-02-15T16:28:52;39.17;;;20.45;;
323;SDS011;149;51.094;17.002;2023-02-15T16:31:20;38.53;;;19.63;;
323;SDS011;149;51.094;17.002;2023-02-15T16:33:51;35.10;;;20.38;;
323;SDS011;149;51.094;17.002;2023-02-15T16:41:22;37.25;;;22.42;;
323;SDS011;149;51.094;17.002;2023-02-15T16:43:54;38.53;;;20.48;;
323;SDS011;149;51.094;17.002;2023-02-15T16:46:28;38.80;;;21.80;;
323;SDS011;149;51.094;17.002;2023-02-15T16:48:59;39.63;;;23.08;;
323;SDS011;149;51.094;17.002;2023-02-15T16:51:29;34.38;;;23.63;;
323;SDS011;149;51.094;17.002;2023-02-15T16:54:07;53.70;;;24.75;;
323;SDS011;149;51.094;17.002;2023-02-15T16:56:42;62.72;;;24.15;;
323;SDS011;149;51.094;17.002;2023-02-15T17:01:53;42.63;;;22.65;;
323;SDS011;149;51.094;17.002;2023-02-15T17:07:05;38.22;;;20.65;;
323;SDS011;149;51.094;17.002;2023-02-15T17:09:33;44.33;;;22.65;;
323;SDS011;149;51.094;17.002;2023-02-15T17:12:00;32.42;;;22.25;;
323;SDS011;149;51.094;17.002;2023-02-15T17:14:31;44.33;;;22.85;;
323;SDS011;149;51.094;17.002;2023-02-15T17:17:12;40.78;;;22.42;;
323;SDS011;149;51.094;17.002;2023-02-15T17:22:20;37.30;;;21.33;;
323;SDS011;149;51.094;17.002;2023-02-15T17:24:50;38.50;;;23.08;;
323;SDS011;149;51.094;17.002;2023-02-15T17:27:26;40.30;;;21.75;;
323;SDS011;149;51.094;17.002;2023-02-15T17:29:56;34.95;;;23.00;;
323;SDS011;149;51.094;17.002;2023-02-15T17:32:30;43.28;;;22.88;;
323;SDS011;149;51.094;17.002;2023-02-15T17:35:05;42.72;;;26.83;;
323;SDS011;149;51.094;17.002;2023-02-15T17:40:14;43.15;;;25.02;;
323;SDS011;149;51.094;17.002;2023-02-15T17:42:55;41.17;;;21.70;;
323;SDS011;149;51.094;17.002;2023-02-15T17:45:22;41.55;;;22.50;;
323;SDS011;149;51.094;17.002;2023-02-15T17:47:52;45.90;;;26.25;;
323;SDS011;149;51.094;17.002;2023-02-15T17:50:21;48.28;;;23.90;;
323;SDS011;149;51.094;17.002;2023-02-15T17:52:49;41.55;;;25.10;;
323;SDS011;149;51.094;17.002;2023-02-15T17:55:18;38.15;;;23.55;;
323;SDS011;149;51.094;17.002;2023-02-15T17:58:07;52.80;;;27.58;;
323;SDS011;149;51.094;17.002;2023-02-15T18:00:43;43.35;;;26.65;;
323;SDS011;149;51.094;17.002;2023-02-15T18:06:29;48.13;;;26.17;;
323;SDS011;149;51.094;17.002;2023-02-15T18:09:16;55.08;;;28.92;;
323;SDS011;149;51.094;17.002;2023-02-15T18:12:11;54.88;;;30.88;;
323;SDS011;149;51.094;17.002;2023-02-15T18:14:50;62.60;;;30.88;;
323;SDS011;149;51.094;17.002;2023-02-15T18:17:35;50.13;;;28.45;;
323;SDS011;149;51.094;17.002;2023-02-15T18:20:21;48.10;;;28.67;;
323;SDS011;149;51.094;17.002;2023-02-15T18:22:54;48.42;;;29.73;;
323;SDS011;149;51.094;17.002;2023-02-15T18:25:22;44.15;;;26.50;;
323;SDS011;149;51.094;17.002;2023-02-15T18:27:51;46.67;;;27.63;;
323;SDS011;149;51.094;17.002;2023-02-15T18:30:21;203.45;;;90.03;;
323;SDS011;149;51.094;17.002;2023-02-15T18:32:52;105.97;;;52.60;;
323;SDS011;149;51.094;17.002;2023-02-15T18:35:23;137.43;;;62.78;;
323;SDS011;149;51.094;17.002;2023-02-15T18:37:53;122.35;;;52.35;;
323;SDS011;149;51.094;17.002;2023-02-15T18:40:22;79.90;;;41.80;;
323;SDS011;149;51.094;17.002;2023-02-15T18:42:52;68.80;;;35.63;;
323;SDS011;149;51.094;17.002;2023-02-15T18:45:20;77.10;;;36.38;;
323;SDS011;149;51.094;17.002;2023-02-15T18:47:58;72.75;;;33.95;;
323;SDS011;149;51.094;17.002;2023-02-15T18:50:26;69.35;;;35.30;;
323;SDS011;149;51.094;17.002;2023-02-15T18:52:58;68.85;;;37.33;;
323;SDS011;149;51.094;17.002;2023-02-15T18:55:26;66.70;;;34.20;;
323;SDS011;149;51.094;17.002;2023-02-15T18:57:57;72.78;;;34.67;;
323;SDS011;149;51.094;17.002;2023-02-15T19:00:26;64.82;;;35.85;;
323;SDS011;149;51.094;17.002;2023-02-15T19:02:58;66.03;;;35.20;;